Time;durP1;ratioP1;P1;durP2;ratioP2;P2;SDS_P1;SDS_P2;PMS_P1;PMS_P2;Temp;Humidity;BMP_temperature;BMP_pressure;BME280_temperature;BME280_humidity;BME280_pressure;Samples;Min_cycle;Max_cycle;Signal;HPM_P1;HPM_P2
2021/08/10 00:00:02;;;;;;;28.92;13.60;;;;;;;24.13;81.05;99752.46;1784272;80;21346;-76
2021/08/10 00:03:07;;;;;;;27.07;13.98;;;;;;;24.08;80.81;99759.45;1790109;80;21291;-77
2021/08/10 00:06:13;;;;;;;28.85;13.05;;;;;;;24.09;80.65;99751.38;1784828;80;21219;-86
2021/08/10 00:09:19;;;;;;;22.62;13.00;;;;;;;24.11;80.53;99747.72;1784857;80;21785;-77
2021/08/10 00:12:24;;;;;;;30.17;13.13;;;;;;;24.14;80.39;99756.13;1784141;80;21315;-86
2021/08/10 00:15:30;;;;;;;25.72;13.20;;;;;;;24.12;80.35;99754.98;1785048;80;21804;-86
2021/08/10 00:18:36;;;;;;;27.52;12.75;;;;;;;24.13;80.41;99752.46;1784131;80;21260;-85
2021/08/10 00:21:41;;;;;;;25.00;12.18;;;;;;;24.15;80.33;99750.25;1784161;80;21325;-77
2021/08/10 00:24:47;;;;;;;21.57;12.80;;;;;;;24.14;80.42;99747.18;1785969;80;21454;-87
2021/08/10 00:27:53;;;;;;;26.68;13.05;;;;;;;24.11;80.66;99740.74;1784423;80;21268;-76
2021/08/10 00:31:00;;;;;;;19.12;12.10;;;;;;;24.09;80.89;99741.59;1784333;80;21211;-86
2021/08/10 00:34:06;;;;;;;27.07;11.50;;;;;;;24.08;81.04;99742.69;1785902;80;21259;-86
2021/08/10 00:37:14;;;;;;;26.75;11.15;;;;;;;24.07;81.25;99740.18;1784696;80;21334;-86
2021/08/10 00:40:20;;;;;;;16.67;11.45;;;;;;;23.99;81.58;99742.96;1785896;80;21189;-86
2021/08/10 00:43:46;;;;;;;27.95;11.60;;;;;;;23.94;81.90;99744.36;1769498;80;21809;-86
2021/08/10 00:46:53;;;;;;;26.77;12.55;;;;;;;23.92;82.24;99739.63;1785657;80;21196;-77
2021/08/10 00:49:58;;;;;;;19.30;11.80;;;;;;;23.91;82.50;99740.75;1785929;80;21224;-86
2021/08/10 00:53:06;;;;;;;33.80;12.80;;;;;;;23.88;82.67;99731.52;1785971;80;21307;-77
2021/08/10 00:56:15;;;;;;;23.30;11.57;;;;;;;23.88;82.73;99732.91;1786005;80;21220;-76
2021/08/10 00:59:20;;;;;;;;;;;;;;;23.89;82.85;99731.79;1788703;80;21291;-77
2021/08/10 01:02:25;;;;;;;25.70;12.50;;;;;;;23.89;82.87;99731.79;1785939;80;20252;-77
2021/08/10 01:05:31;;;;;;;31.27;12.10;;;;;;;23.88;82.94;99723.97;1785796;80;21231;-77
2021/08/10 01:09:09;;;;;;;29.90;14.05;;;;;;;23.90;82.95;99711.11;1785839;80;21196;-77
2021/08/10 01:12:28;;;;;;;25.30;14.73;;;;;;;23.91;83.00;99713.65;1784577;80;21227;-86
2021/08/10 01:15:40;;;;;;;24.87;13.58;;;;;;;23.91;83.07;99710.02;1784479;80;21196;-87
2021/08/10 01:18:50;;;;;;;32.13;15.13;;;;;;;23.86;83.12;99704.44;1785985;80;21156;-78
2021/08/10 01:21:58;;;;;;;28.02;15.13;;;;;;;23.82;83.36;99710.30;1785773;80;21786;-82
2021/08/10 01:25:39;;;;;;;27.35;16.32;;;;;;;23.77;83.69;99706.94;1786020;80;21196;-87
2021/08/10 01:29:17;;;;;;;31.48;16.45;;;;;;;23.74;84.01;99705.26;1785833;80;21276;-78
2021/08/10 01:32:23;;;;;;;30.12;16.07;;;;;;;23.67;84.49;99706.38;1785624;80;21192;-87
2021/08/10 01:35:30;;;;;;;36.00;17.75;;;;;;;23.61;84.92;99705.20;1785883;80;21192;-77
2021/08/10 01:38:35;;;;;;;29.30;16.55;;;;;;;23.58;85.32;99706.61;1785955;80;21192;-77
2021/08/10 01:41:40;;;;;;;30.60;17.30;;;;;;;23.55;85.62;99705.75;1785072;80;21802;-78
2021/08/10 01:44:47;;;;;;;26.40;15.13;;;;;;;23.53;85.92;99705.77;1785988;80;21675;-87
2021/08/10 01:47:55;;;;;;;39.15;16.67;;;;;;;23.51;86.13;99701.83;1784163;80;21271;-87
2021/08/10 01:51:01;;;;;;;31.95;17.70;;;;;;;23.50;86.32;99702.95;1784432;80;21276;-87
2021/08/10 01:54:09;;;;;;;33.85;17.17;;;;;;;23.50;86.43;99706.30;1785960;80;21742;-82
2021/08/10 01:57:20;;;;;;;32.55;19.07;;;;;;;23.50;86.47;99709.94;1784429;80;21293;-86
2021/08/10 02:00:26;;;;;;;32.15;17.85;;;;;;;23.49;86.54;99705.47;1785612;80;21312;-77
2021/08/10 02:03:32;;;;;;;33.95;18.07;;;;;;;23.46;86.62;99708.80;1785709;80;21220;-76
2021/08/10 02:06:38;;;;;;;38.45;18.17;;;;;;;23.43;86.61;99707.42;1785046;80;21787;-77
2021/08/10 02:09:45;;;;;;;27.42;17.25;;;;;;;23.39;86.69;99707.69;1785973;80;21259;-83
2021/08/10 02:12:51;;;;;;;40.50;16.67;;;;;;;23.37;86.85;99702.92;1785829;80;21204;-83
2021/08/10 02:15:58;;;;;;;28.30;15.75;;;;;;;23.37;87.00;99709.06;1785821;80;21237;-77
2021/08/10 02:19:07;;;;;;;28.42;14.87;;;;;;;23.35;87.01;99708.51;1784336;80;21156;-86
2021/08/10 02:22:19;;;;;;;27.42;15.72;;;;;;;23.32;87.11;99713.23;1784646;80;21307;-77
2021/08/10 02:25:30;;;;;;;34.90;17.05;;;;;;;23.29;87.17;99708.19;1775030;80;21328;-77
2021/08/10 02:28:36;;;;;;;31.40;16.23;;;;;;;23.29;87.39;99710.98;1772272;81;21667;-87
2021/08/10 02:31:44;;;;;;;27.30;15.53;;;;;;;23.29;87.46;99707.66;1771061;80;21322;-87
2021/08/10 02:34:52;;;;;;;33.38;16.85;;;;;;;23.27;87.35;99707.08;1772119;81;21209;-76
2021/08/10 02:37:58;;;;;;;26.45;15.13;;;;;;;23.25;87.47;99700.12;1772164;81;21285;-77
2021/08/10 02:41:05;;;;;;;30.05;15.45;;;;;;;23.24;87.63;99699.81;1770565;81;21209;-87
2021/08/10 02:44:14;;;;;;;33.98;16.82;;;;;;;23.20;87.71;99703.17;1772026;81;21193;-77
2021/08/10 02:47:20;;;;;;;30.10;17.07;;;;;;;23.20;87.70;99701.77;1772031;80;21157;-87
2021/08/10 02:50:29;;;;;;;28.25;16.65;;;;;;;23.20;87.65;99697.59;1772216;81;21723;-87
2021/08/10 02:53:33;;;;;;;40.25;16.65;;;;;;;23.19;87.69;99702.86;1772251;81;21134;-77
2021/08/10 02:56:43;;;;;;;31.87;16.30;;;;;;;23.18;87.67;99702.59;1772168;81;21831;-78
2021/08/10 03:00:01;;;;;;;33.60;16.50;;;;;;;23.19;87.84;99703.42;1772233;81;21257;-77
2021/08/10 03:03:09;;;;;;;32.15;16.93;;;;;;;23.23;87.78;99702.33;1772203;80;21280;-77
2021/08/10 03:06:16;;;;;;;30.10;16.32;;;;;;;23.23;87.53;99700.93;1772144;81;21193;-88
2021/08/10 03:09:23;;;;;;;31.12;17.02;;;;;;;23.23;87.53;99707.91;1772123;81;21162;-80
2021/08/10 03:12:29;;;;;;;30.55;16.55;;;;;;;23.24;87.74;99706.78;1770688;81;21910;-77
2021/08/10 03:15:37;;;;;;;32.95;16.85;;;;;;;23.27;87.77;99705.69;1772228;81;21221;-87
2021/08/10 03:18:41;;;;;;;28.27;16.30;;;;;;;23.32;87.73;99707.09;1772153;80;21335;-81
2021/08/10 03:21:46;;;;;;;33.55;18.00;;;;;;;23.39;87.55;99714.66;1772153;81;21201;-87
2021/08/10 03:24:52;;;;;;;34.45;18.00;;;;;;;23.45;87.30;99709.92;1784200;80;21134;-77
2021/08/10 03:27:56;;;;;;;26.87;17.20;;;;;;;23.50;87.16;99716.08;1772067;81;21316;-87
2021/08/10 03:31:06;;;;;;;35.63;17.23;;;;;;;23.56;86.88;99720.55;1783547;80;21960;-77
2021/08/10 03:34:12;;;;;;;34.15;16.35;;;;;;;23.61;86.73;99717.76;1771984;80;21193;-77
2021/08/10 03:37:17;;;;;;;27.52;17.10;;;;;;;23.68;86.78;99716.42;1772144;81;21306;-76
2021/08/10 03:40:22;;;;;;;38.45;16.12;;;;;;;23.72;86.15;99720.90;1772015;81;21273;-77
2021/08/10 03:43:28;;;;;;;29.77;18.48;;;;;;;23.77;86.02;99722.86;1770621;81;21923;-87
2021/08/10 03:46:38;;;;;;;42.30;19.62;;;;;;;23.81;86.15;99716.45;1771312;81;21161;-86
2021/08/10 03:49:45;;;;;;;37.03;21.33;;;;;;;23.89;86.22;99707.48;1770533;81;21296;-86
2021/08/10 03:52:51;;;;;;;54.50;25.95;;;;;;;23.99;85.96;99705.25;1761195;81;21299;-87
2021/08/10 03:55:57;;;;;;;40.85;21.73;;;;;;;24.06;85.72;99707.22;1772355;81;21328;-87
2021/08/10 03:59:05;;;;;;;38.50;21.68;;;;;;;24.12;85.42;99706.09;1770961;81;21272;-77
2021/08/10 04:02:11;;;;;;;47.98;23.25;;;;;;;24.19;85.12;99701.64;1771037;81;21213;-86
2021/08/10 04:05:18;;;;;;;41.00;21.90;;;;;;;24.25;84.83;99701.91;1772048;81;21268;-77
2021/08/10 04:08:24;;;;;;;38.60;21.60;;;;;;;24.31;84.67;99704.13;1772181;81;21299;-84
2021/08/10 04:11:32;;;;;;;35.43;21.80;;;;;;;24.39;84.54;99706.39;1771424;81;21177;-77
2021/08/10 04:14:39;;;;;;;34.75;19.95;;;;;;;24.45;84.38;99714.47;1772302;81;21253;-78
2021/08/10 04:17:45;;;;;;;28.83;18.70;;;;;;;24.53;84.20;99713.63;1772242;81;21276;-78
2021/08/10 04:20:55;;;;;;;31.90;21.25;;;;;;;24.57;83.88;99708.59;1772200;81;21295;-86
2021/08/10 04:24:04;;;;;;;;;;;;;;;24.61;83.73;99705.51;1774895;81;21181;-80
2021/08/10 04:27:06;;;;;;;39.20;22.85;;;;;;;24.64;83.49;99711.08;1771701;80;20197;-87
2021/08/10 04:30:13;;;;;;;50.20;22.58;;;;;;;24.65;83.38;99713.58;1772075;81;21142;-86
2021/08/10 04:33:18;;;;;;;33.23;20.48;;;;;;;24.67;83.06;99709.95;1772123;80;21261;-83
2021/08/10 04:36:23;;;;;;;34.78;20.92;;;;;;;24.63;82.98;99708.84;1772220;81;21826;-86
2021/08/10 04:39:28;;;;;;;36.55;18.85;;;;;;;24.59;83.04;99699.34;1771906;81;21303;-79
2021/08/10 04:42:36;;;;;;;36.23;18.92;;;;;;;24.57;82.94;99700.20;1771983;81;21893;-76
2021/08/10 04:46:02;;;;;;;35.20;19.02;;;;;;;24.55;82.89;99698.23;1771864;81;21813;-76
2021/08/10 04:49:09;;;;;;;28.40;18.20;;;;;;;24.55;83.03;99701.03;1771477;80;21849;-78
2021/08/10 04:52:15;;;;;;;38.23;20.10;;;;;;;24.54;83.03;99693.77;1755700;81;21296;-78
2021/08/10 04:55:22;;;;;;;32.83;18.65;;;;;;;24.56;83.09;99694.34;1741561;82;21286;-87
2021/08/10 04:58:28;;;;;;;29.05;18.75;;;;;;;24.61;83.04;99687.34;1741382;82;21882;-77
2021/08/10 05:01:34;;;;;;;40.92;19.52;;;;;;;24.63;83.15;99692.06;1740801;82;21716;-77
2021/08/10 05:04:42;;;;;;;38.25;19.42;;;;;;;24.67;83.02;99693.74;1740221;82;21246;-77
2021/08/10 05:07:48;;;;;;;40.12;19.95;;;;;;;24.69;83.09;99690.92;1740028;81;21163;-86
2021/08/10 05:10:56;;;;;;;33.65;19.77;;;;;;;24.74;83.11;99694.27;1740234;82;21740;-87
2021/08/10 05:14:03;;;;;;;35.23;19.87;;;;;;;24.76;82.83;99692.03;1740141;82;21289;-77
2021/08/10 05:17:12;;;;;;;32.38;20.00;;;;;;;24.79;82.50;99692.01;1739930;82;21392;-77
2021/08/10 05:20:18;;;;;;;26.33;18.37;;;;;;;24.83;82.67;99690.32;1740011;82;21242;-77
2021/08/10 05:23:26;;;;;;;32.53;18.98;;;;;;;24.85;82.57;99688.93;1739649;81;21183;-77
2021/08/10 05:26:32;;;;;;;35.00;18.80;;;;;;;24.89;82.62;99683.58;1743489;81;21298;-86
2021/08/10 05:29:37;;;;;;;30.97;17.12;;;;;;;24.96;82.75;99686.92;1694397;84;21708;-76
2021/08/10 05:32:44;;;;;;;34.05;17.52;;;;;;;25.03;82.40;99686.06;1757108;81;21797;-76
2021/08/10 05:35:53;;;;;;;35.25;16.10;;;;;;;25.13;81.66;99691.63;1747427;81;21829;-86
2021/08/10 05:39:00;;;;;;;33.15;17.30;;;;;;;25.20;81.34;99690.74;1765564;81;21385;-86
2021/08/10 05:42:06;;;;;;;24.95;16.80;;;;;;;25.31;80.94;99701.31;1764997;81;21303;-86
2021/08/10 05:45:12;;;;;;;30.15;17.00;;;;;;;25.45;80.60;99702.91;1751687;81;21192;-77
2021/08/10 05:48:17;;;;;;;27.25;17.67;;;;;;;25.58;79.76;99698.07;1771451;81;21292;-76
2021/08/10 05:51:22;;;;;;;30.97;17.00;;;;;;;25.72;79.20;99692.09;1763905;81;21269;-77
2021/08/10 05:54:29;;;;;;;31.62;16.73;;;;;;;25.85;78.06;99687.00;1749505;79;21276;-77
2021/08/10 05:57:34;;;;;;;28.27;15.63;;;;;;;25.94;77.84;99685.24;1751574;81;21802;-79
2021/08/10 06:00:40;;;;;;;37.45;16.82;;;;;;;26.02;77.06;99682.36;1770924;81;21197;-77
2021/08/10 06:03:46;;;;;;;25.55;16.95;;;;;;;26.08;76.79;99686.23;1757205;81;21682;-86
2021/08/10 06:06:51;;;;;;;23.98;15.38;;;;;;;26.16;76.30;99689.82;1763568;81;21284;-86
2021/08/10 06:09:58;;;;;;;28.30;15.10;;;;;;;26.24;75.71;99690.56;1749720;81;21687;-86
2021/08/10 06:13:02;;;;;;;30.02;16.25;;;;;;;26.32;75.35;99691.06;1747597;81;22548;-77
2021/08/10 06:16:09;;;;;;;23.90;14.13;;;;;;;26.39;75.04;99692.94;1744649;81;21240;-76
2021/08/10 06:19:17;;;;;;;26.35;15.23;;;;;;;26.44;74.16;99693.78;1749136;81;21189;-86
2021/08/10 06:22:23;;;;;;;28.55;15.20;;;;;;;26.54;73.86;99692.84;1749099;81;21308;-76
2021/08/10 06:25:30;;;;;;;30.02;16.05;;;;;;;26.62;73.10;99699.17;1758678;80;21343;-86
2021/08/10 06:28:36;;;;;;;24.98;13.60;;;;;;;26.68;72.92;99709.23;1761663;79;21303;-86
2021/08/10 06:31:43;;;;;;;27.30;15.30;;;;;;;26.74;72.44;99701.02;1752269;82;21302;-86
2021/08/10 06:34:49;;;;;;;23.20;14.75;;;;;;;26.77;72.49;99706.58;1752575;82;21825;-77
2021/08/10 06:37:55;;;;;;;26.73;15.78;;;;;;;26.83;71.89;99708.21;1761771;80;21256;-86
2021/08/10 06:41:02;;;;;;;31.33;15.93;;;;;;;26.95;71.27;99707.20;1753059;80;21921;-77
2021/08/10 06:44:09;;;;;;;30.30;16.12;;;;;;;27.07;71.20;99713.81;1765782;80;21315;-86
2021/08/10 06:47:16;;;;;;;22.75;15.43;;;;;;;27.17;70.64;99715.67;1767986;80;21157;-76
2021/08/10 06:50:23;;;;;;;29.63;17.65;;;;;;;27.25;70.58;99717.25;1709705;83;21148;-87
2021/08/10 06:53:29;;;;;;;28.38;17.65;;;;;;;27.33;71.71;99721.91;1716968;83;21256;-76
2021/08/10 06:56:36;;;;;;;28.47;18.17;;;;;;;27.35;71.31;99716.85;1718296;82;21313;-87
2021/08/10 06:59:44;;;;;;;34.58;19.37;;;;;;;27.31;71.53;99718.59;1728355;83;21311;-86
2021/08/10 07:02:50;;;;;;;34.48;20.27;;;;;;;27.25;71.97;99721.46;1707855;83;22099;-86
2021/08/10 07:05:56;;;;;;;32.63;19.95;;;;;;;27.25;71.97;99721.46;1718209;82;21386;-87
2021/08/10 07:09:05;;;;;;;34.70;17.82;;;;;;;27.24;72.57;99725.41;1715166;82;21296;-86
2021/08/10 07:12:11;;;;;;;34.83;20.97;;;;;;;27.24;72.26;99728.22;1727587;82;21258;-76
2021/08/10 07:15:17;;;;;;;32.38;18.40;;;;;;;27.21;72.54;99717.59;1715071;83;21310;-87
2021/08/10 07:18:24;;;;;;;29.85;17.80;;;;;;;27.22;72.67;99723.45;1707767;83;21256;-87
2021/08/10 07:21:32;;;;;;;25.08;16.65;;;;;;;27.22;72.55;99715.61;1707452;83;21342;-77
2021/08/10 07:24:40;;;;;;;34.25;17.12;;;;;;;27.16;72.73;99721.86;1701896;83;21319;-77
2021/08/10 07:27:45;;;;;;;34.33;15.72;;;;;;;27.12;73.15;99720.79;1705780;83;21170;-85
2021/08/10 07:30:52;;;;;;;27.30;17.37;;;;;;;27.11;73.56;99720.53;1704352;83;21280;-77
2021/08/10 07:33:57;;;;;;;28.73;16.25;;;;;;;27.13;73.91;99723.02;1752546;81;21681;-77
2021/08/10 07:37:04;;;;;;;30.77;15.60;;;;;;;27.20;73.91;99721.53;1755413;81;21603;-78
2021/08/10 07:40:09;;;;;;;30.37;15.32;;;;;;;27.33;72.76;99723.31;1758741;79;21729;-87
2021/08/10 07:43:16;;;;;;;28.20;15.85;;;;;;;27.43;71.77;99721.77;1690810;84;21267;-87
2021/08/10 07:46:21;;;;;;;32.17;14.95;;;;;;;27.53;71.68;99718.84;1755254;81;21300;-85
2021/08/10 07:49:27;;;;;;;26.27;15.05;;;;;;;27.69;71.52;99724.48;1689245;84;21627;-77
2021/08/10 07:52:33;;;;;;;26.20;15.25;;;;;;;27.85;71.24;99724.27;1756899;81;21161;-75
2021/08/10 07:55:40;;;;;;;25.72;15.18;;;;;;;28.01;70.39;99715.30;1755192;81;21192;-77
2021/08/10 07:58:46;;;;;;;32.98;15.65;;;;;;;28.18;69.78;99709.13;1754910;81;21260;-78
2021/08/10 08:01:55;;;;;;;23.90;16.20;;;;;;;28.35;69.39;99709.14;1755094;81;21165;-86
2021/08/10 08:05:01;;;;;;;29.05;17.62;;;;;;;28.63;67.83;99706.63;1745348;81;21256;-77
2021/08/10 08:08:07;;;;;;;27.37;18.17;;;;;;;28.77;67.45;99706.08;1694082;84;21275;-76
2021/08/10 08:11:11;;;;;;;29.18;16.75;;;;;;;28.77;67.45;99706.08;1755238;81;21284;-85
2021/08/10 08:14:20;;;;;;;28.07;17.23;;;;;;;28.97;67.17;99702.61;1762335;81;21264;-86
2021/08/10 08:17:24;;;;;;;28.45;15.85;;;;;;;29.13;66.20;99703.97;1682746;83;21295;-86
2021/08/10 08:20:31;;;;;;;26.55;17.02;;;;;;;29.34;65.92;99704.92;1768936;81;21868;-86
2021/08/10 08:23:38;;;;;;;40.17;17.52;;;;;;;29.63;64.49;99705.41;1758741;81;21288;-76
2021/08/10 08:26:45;;;;;;;30.95;15.85;;;;;;;29.86;62.35;99704.03;1751809;81;21284;-76
2021/08/10 08:29:51;;;;;;;29.82;15.28;;;;;;;30.03;62.12;99698.53;1753906;81;21161;-77
2021/08/10 08:32:58;;;;;;;31.27;16.80;;;;;;;30.20;60.43;99698.66;1762264;80;21145;-77
2021/08/10 08:36:05;;;;;;;37.58;16.30;;;;;;;30.29;59.86;99697.31;1708411;82;21199;-86
2021/08/10 08:39:11;;;;;;;25.30;15.40;;;;;;;30.32;59.92;99692.45;1727378;82;21737;-87
2021/08/10 08:42:17;;;;;;;39.33;15.38;;;;;;;30.35;59.37;99689.55;1710820;82;21293;-87
2021/08/10 08:45:22;;;;;;;32.50;15.63;;;;;;;30.38;58.50;99684.67;1696915;82;21295;-86
2021/08/10 08:48:28;;;;;;;30.97;14.80;;;;;;;30.39;57.76;99683.52;1698549;84;21359;-87
2021/08/10 08:51:35;;;;;;;28.87;14.58;;;;;;;30.38;57.74;99681.27;1704724;82;21740;-83
2021/08/10 08:54:40;;;;;;;28.17;13.98;;;;;;;30.40;57.66;99683.21;1724960;82;21300;-77
2021/08/10 08:57:45;;;;;;;30.50;14.87;;;;;;;30.40;57.46;99680.97;1729130;82;21217;-83
2021/08/10 09:00:52;;;;;;;19.80;13.70;;;;;;;30.43;56.70;99677.48;1707455;82;21339;-77
2021/08/10 09:03:57;;;;;;;24.63;14.60;;;;;;;30.43;56.46;99672.67;1731777;82;21319;-87
2021/08/10 09:07:05;;;;;;;26.95;13.03;;;;;;;30.44;57.61;99666.45;1718013;82;21715;-77
2021/08/10 09:10:22;;;;;;;23.65;14.85;;;;;;;30.41;57.60;99672.17;1729860;82;21761;-77
2021/08/10 09:13:28;;;;;;;24.27;12.20;;;;;;;30.46;57.83;99662.73;1734886;82;21262;-77
2021/08/10 09:17:11;;;;;;;29.55;12.90;;;;;;;30.59;57.96;99660.41;1612377;88;21327;-87
2021/08/10 09:20:28;;;;;;;25.72;13.25;;;;;;;30.62;56.67;99652.67;1597875;90;21761;-77
2021/08/10 09:23:55;;;;;;;23.77;12.82;;;;;;;30.61;56.44;99655.25;1612188;88;21303;-86
2021/08/10 09:27:00;;;;;;;23.12;11.93;;;;;;;30.59;56.38;99660.41;1605721;87;21330;-77
2021/08/10 09:30:05;;;;;;;22.40;11.93;;;;;;;30.54;56.22;99660.55;1598052;90;21235;-86
2021/08/10 09:33:13;;;;;;;18.42;10.58;;;;;;;30.58;56.99;99665.77;1605384;88;21713;-77
2021/08/10 09:36:28;;;;;;;18.62;10.65;;;;;;;30.69;56.56;99664.92;1596424;89;21288;-76
2021/08/10 09:39:42;;;;;;;18.65;11.00;;;;;;;30.72;55.48;99669.34;1598996;89;21892;-87
2021/08/10 09:42:50;;;;;;;20.05;9.70;;;;;;;30.71;56.03;99662.05;1629177;88;21852;-86
2021/08/10 09:45:54;;;;;;;16.32;9.50;;;;;;;30.70;52.94;99671.64;1603492;89;21361;-84
2021/08/10 09:49:03;;;;;;;16.20;7.12;;;;;;;30.72;51.67;99675.57;1614373;88;21319;-76
2021/08/10 09:52:10;;;;;;;11.33;6.70;;;;;;;30.75;49.16;99664.47;1603873;88;21393;-76
2021/08/10 09:55:23;;;;;;;9.65;6.33;;;;;;;30.92;49.30;99665.70;1687913;82;21304;-77
2021/08/10 09:58:28;;;;;;;15.68;7.58;;;;;;;31.06;48.09;99665.00;1746737;82;21315;-77
2021/08/10 10:01:47;;;;;;;15.45;7.42;;;;;;;31.21;47.77;99653.23;1738671;82;21298;-86
2021/08/10 10:05:05;;;;;;;13.75;8.20;;;;;;;31.35;48.99;99638.98;1734455;82;21212;-86
2021/08/10 10:08:26;;;;;;;15.15;7.95;;;;;;;31.52;49.48;99638.15;1729600;82;21896;-76
2021/08/10 10:11:32;;;;;;;14.83;6.40;;;;;;;31.65;49.77;99631.50;1735365;82;21217;-76
2021/08/10 10:14:41;;;;;;;16.15;7.25;;;;;;;31.69;47.44;99626.84;1717533;82;21342;-76
2021/08/10 10:17:47;;;;;;;14.38;6.90;;;;;;;31.72;47.63;99623.95;1715968;83;21193;-76
2021/08/10 10:20:55;;;;;;;16.35;5.92;;;;;;;31.65;48.04;99621.61;1734788;82;21295;-83
2021/08/10 10:24:02;;;;;;;15.32;5.92;;;;;;;31.60;47.68;99609.06;1747355;82;21327;-80
2021/08/10 10:27:12;;;;;;;10.08;5.25;;;;;;;31.53;45.97;99598.86;1731234;82;21335;-76
2021/08/10 10:30:18;;;;;;;13.75;5.00;;;;;;;31.46;44.81;99597.09;1718042;82;21845;-83
2021/08/10 10:33:24;;;;;;;9.08;4.80;;;;;;;31.43;45.56;99585.90;1707658;83;21205;-75
2021/08/10 10:36:29;;;;;;;13.53;4.75;;;;;;;31.44;44.10;99582.48;1702071;83;21381;-75
2021/08/10 10:39:38;;;;;;;9.85;5.17;;;;;;;31.50;41.81;99579.73;1695635;84;21176;-82
2021/08/10 10:42:43;;;;;;;9.78;5.05;;;;;;;31.54;44.82;99577.91;1697097;84;21306;-75
2021/08/10 10:45:53;;;;;;;9.60;4.75;;;;;;;31.53;43.83;99577.08;1721576;81;21248;-81
2021/08/10 10:48:58;;;;;;;12.30;5.00;;;;;;;31.56;43.72;99565.67;1755137;81;21761;-79
2021/08/10 10:52:05;;;;;;;8.83;4.42;;;;;;;31.61;42.86;99571.14;1753308;81;21753;-83
2021/08/10 10:55:11;;;;;;;8.40;3.42;;;;;;;31.64;42.03;99578.97;1707082;81;21303;-76
2021/08/10 10:58:40;;;;;;;8.68;4.05;;;;;;;31.68;39.36;99574.31;1755032;81;21820;-73
2021/08/10 11:01:46;;;;;;;10.93;4.03;;;;;;;31.73;39.69;99572.72;1752205;81;21589;-82
2021/08/10 11:05:21;;;;;;;9.08;4.62;;;;;;;31.78;40.10;99573.13;1756661;81;21287;-76
2021/08/10 11:08:45;;;;;;;9.30;4.72;;;;;;;31.79;39.49;99582.67;1750605;81;21150;-82
2021/08/10 11:11:57;;;;;;;11.45;4.20;;;;;;;31.83;40.15;99571.57;1760936;81;21300;-76
2021/08/10 11:15:02;;;;;;;9.05;3.70;;;;;;;31.89;40.78;99574.45;1731562;82;21145;-82
2021/08/10 11:18:22;;;;;;;9.03;4.60;;;;;;;31.91;40.62;99572.73;1746817;81;21271;-75
2021/08/10 11:21:28;;;;;;;13.72;4.95;;;;;;;31.93;40.28;99583.11;1764224;81;21260;-83
2021/08/10 11:24:41;;;;;;;13.95;4.30;;;;;;;32.03;40.39;99579.91;1741713;81;21330;-83
2021/08/10 11:27:49;;;;;;;7.97;4.17;;;;;;;32.14;40.54;99579.81;1761254;81;21142;-82
2021/08/10 11:30:55;;;;;;;8.68;4.12;;;;;;;32.24;40.60;99579.44;1755136;81;21609;-82
2021/08/10 11:34:00;;;;;;;12.45;4.60;;;;;;;32.33;41.60;99570.92;1681142;83;21302;-75
2021/08/10 11:37:30;;;;;;;7.83;4.47;;;;;;;32.43;40.20;99569.16;1699612;84;21271;-82
2021/08/10 11:40:36;;;;;;;12.13;5.12;;;;;;;32.46;39.91;99577.53;1697597;83;21343;-73
2021/08/10 11:43:51;;;;;;;11.40;4.90;;;;;;;32.54;40.51;99581.74;1708815;83;21185;-82
2021/08/10 11:46:59;;;;;;;12.53;5.03;;;;;;;32.62;38.76;99581.47;1691527;83;21457;-80
2021/08/10 11:50:04;;;;;;;11.88;4.42;;;;;;;32.75;39.12;99585.23;1716301;82;21217;-81
2021/08/10 11:53:11;;;;;;;8.43;4.75;;;;;;;32.81;39.13;99592.35;1744259;81;22198;-76
2021/08/10 11:56:41;;;;;;;14.95;5.45;;;;;;;32.89;37.75;99582.13;1739294;81;21315;-75
2021/08/10 11:59:47;;;;;;;14.25;6.42;;;;;;;32.97;39.19;99588.36;1753357;81;21252;-83
2021/08/10 12:02:55;;;;;;;16.40;6.25;;;;;;;33.07;41.14;99585.12;1752670;81;21272;-83
2021/08/10 12:06:01;;;;;;;16.37;7.10;;;;;;;33.17;41.53;99574.82;1753701;81;21703;-83
2021/08/10 12:09:15;;;;;;;14.83;6.78;;;;;;;33.20;40.63;99572.70;1705724;82;21262;-83
2021/08/10 12:12:21;;;;;;;16.37;7.67;;;;;;;33.22;40.78;99564.70;1755360;81;21130;-76
2021/08/10 12:15:48;;;;;;;20.95;7.30;;;;;;;33.31;41.54;99566.87;1758392;81;21267;-76
2021/08/10 12:18:57;;;;;;;12.90;6.65;;;;;;;33.29;41.22;99556.45;1704790;84;21267;-83
2021/08/10 12:22:02;;;;;;;12.82;7.17;;;;;;;33.19;41.83;99553.22;1751008;79;21259;-76
2021/08/10 12:25:07;;;;;;;19.37;7.70;;;;;;;33.12;41.91;99554.34;1746555;81;21149;-76
2021/08/10 12:28:15;;;;;;;19.23;7.10;;;;;;;33.01;41.42;99554.75;1701538;84;21252;-83
2021/08/10 12:31:21;;;;;;;21.82;7.10;;;;;;;32.94;41.58;99565.82;1753579;81;21160;-77
2021/08/10 12:34:31;;;;;;;21.77;7.62;;;;;;;32.85;41.43;99571.27;1754413;79;21165;-83
2021/08/10 12:37:39;;;;;;;11.88;6.00;;;;;;;32.82;42.07;99562.27;1721277;82;21147;-82
2021/08/10 12:40:44;;;;;;;16.40;6.67;;;;;;;32.76;41.87;99562.23;1747435;80;21808;-83
2021/08/10 12:43:50;;;;;;;17.70;6.53;;;;;;;32.72;42.39;99557.01;1742924;82;21259;-83
2021/08/10 12:46:54;;;;;;;10.28;5.70;;;;;;;32.63;41.78;99554.81;1693816;83;21345;-83
2021/08/10 12:50:02;;;;;;;15.13;5.85;;;;;;;32.55;41.53;99544.36;1687292;82;21826;-77
2021/08/10 12:53:09;;;;;;;12.18;5.83;;;;;;;32.49;42.33;99545.14;1740144;82;21180;-87
2021/08/10 12:56:14;;;;;;;15.23;6.17;;;;;;;32.49;41.81;99545.73;1744554;82;21322;-77
2021/08/10 12:59:21;;;;;;;15.23;5.58;;;;;;;32.44;41.26;99544.52;1744213;82;21238;-86
2021/08/10 13:02:47;;;;;;;17.00;5.55;;;;;;;32.39;40.65;99556.03;1714762;83;21890;-87
2021/08/10 13:05:55;;;;;;;22.82;5.22;;;;;;;32.29;42.41;99563.69;1715859;83;21761;-87
2021/08/10 13:09:03;;;;;;;13.32;5.10;;;;;;;31.96;43.63;99566.30;1742328;82;21244;-76
2021/08/10 13:12:17;;;;;;;10.77;4.87;;;;;;;31.69;44.39;99575.14;1743374;81;21690;-86
2021/08/10 13:15:23;;;;;;;11.78;4.70;;;;;;;31.46;44.62;99573.08;1707446;84;21286;-87
2021/08/10 13:18:36;;;;;;;8.43;4.30;;;;;;;31.20;44.58;99574.48;1705371;84;21715;-77
2021/08/10 13:22:00;;;;;;;8.65;4.58;;;;;;;30.96;44.82;99580.02;1682775;85;21742;-86
2021/08/10 13:25:18;;;;;;;14.15;4.35;;;;;;;30.69;43.48;99584.48;1693116;85;21901;-76
2021/08/10 13:28:23;;;;;;;13.32;5.47;;;;;;;30.48;43.72;99578.59;1693649;85;21280;-86
2021/08/10 13:31:29;;;;;;;11.15;5.50;;;;;;;30.28;46.24;99583.66;1692912;85;21193;-77
2021/08/10 13:34:54;;;;;;;10.85;4.42;;;;;;;30.03;47.82;99584.34;1700793;83;21177;-86
2021/08/10 13:38:00;;;;;;;9.50;4.47;;;;;;;29.83;47.83;99573.59;1704095;84;21390;-86
2021/08/10 13:41:06;;;;;;;20.70;5.53;;;;;;;29.72;47.92;99585.71;1703460;84;21228;-76
2021/08/10 13:44:12;;;;;;;13.72;6.05;;;;;;;29.67;49.54;99580.21;1703183;84;21189;-86
2021/08/10 13:47:17;;;;;;;13.25;6.75;;;;;;;29.58;50.58;99575.09;1703462;84;21367;-86
2021/08/10 13:50:22;;;;;;;13.70;5.80;;;;;;;29.48;51.65;99568.53;1705536;84;21351;-87
2021/08/10 13:53:27;;;;;;;11.73;5.75;;;;;;;29.38;52.45;99565.14;1705777;84;21982;-77
2021/08/10 13:56:36;;;;;;;10.45;4.85;;;;;;;29.26;51.87;99572.15;1705294;84;21338;-77
2021/08/10 13:59:39;;;;;;;14.50;5.17;;;;;;;29.18;52.02;99570.11;1683696;84;21165;-86
2021/08/10 14:02:45;;;;;;;16.87;5.28;;;;;;;29.13;52.78;99580.09;1705368;84;21841;-77
2021/08/10 14:05:52;;;;;;;15.23;5.60;;;;;;;29.03;53.61;99582.56;1705323;84;21343;-87
2021/08/10 14:08:58;;;;;;;14.25;5.42;;;;;;;28.95;54.28;99577.67;1704715;84;21180;-86
2021/08/10 14:12:06;;;;;;;13.90;5.33;;;;;;;28.87;54.83;99574.16;1705974;84;21340;-86
2021/08/10 14:15:15;;;;;;;15.65;5.65;;;;;;;28.74;55.66;99567.98;1706038;84;21813;-77
2021/08/10 14:18:20;;;;;;;17.48;6.03;;;;;;;28.62;56.39;99563.48;1704605;84;21782;-87
2021/08/10 14:21:28;;;;;;;13.25;5.65;;;;;;;28.45;56.82;99554.25;1704485;83;21214;-77
2021/08/10 14:24:32;;;;;;;15.80;5.72;;;;;;;28.27;57.10;99541.93;1706048;84;21276;-77
2021/08/10 14:27:37;;;;;;;13.03;5.62;;;;;;;28.21;58.68;99538.39;1706045;84;21806;-87
2021/08/10 14:30:43;;;;;;;19.30;6.30;;;;;;;28.13;59.39;99536.30;1705954;84;21344;-77